createdAt,value
2019-03-21T00:00:38.688Z,19.25
2019-03-21T00:01:38.642Z,19.24
2019-03-21T00:02:38.603Z,19.21
2019-03-21T00:03:38.553Z,19.24
2019-03-21T00:04:38.512Z,19.27
2019-03-21T00:05:38.471Z,19.23
2019-03-21T00:06:38.428Z,19.28
2019-03-21T00:07:38.361Z,19.23
2019-03-21T00:08:38.313Z,19.24
2019-03-21T00:09:38.269Z,19.27
2019-03-21T00:10:38.219Z,19.31
2019-03-21T00:11:38.172Z,19.23
2019-03-21T00:12:38.128Z,19.24
2019-03-21T00:13:48.124Z,19.21
2019-03-21T00:14:38.044Z,19.27
2019-03-21T00:15:38.000Z,19.28
2019-03-21T00:16:37.953Z,19.25
2019-03-21T00:17:37.915Z,19.25
2019-03-21T00:18:37.851Z,19.23
2019-03-21T00:19:37.822Z,19.27
2019-03-21T00:20:37.774Z,19.23
2019-03-21T00:21:37.726Z,19.17
2019-03-21T00:22:37.683Z,19.23
2019-03-21T00:23:37.634Z,19.20
2019-03-21T00:24:37.602Z,19.15
2019-03-21T00:25:37.537Z,19.15
2019-03-21T00:26:37.493Z,19.25
2019-03-21T00:27:37.448Z,19.13
2019-03-21T00:28:37.414Z,19.12
2019-03-21T00:29:47.416Z,19.15
2019-03-21T00:30:37.326Z,19.13
2019-03-21T00:31:37.283Z,19.25
2019-03-21T00:32:37.235Z,19.12
2019-03-21T00:33:37.211Z,19.13
2019-03-21T00:34:37.167Z,19.23
2019-03-21T00:35:38.614Z,19.13
2019-03-21T00:36:37.059Z,19.16
2019-03-21T00:37:37.014Z,19.17
2019-03-21T00:38:36.965Z,19.12
2019-03-21T00:39:36.935Z,19.13
2019-03-21T00:40:36.879Z,19.10
2019-03-21T00:41:36.831Z,19.20
2019-03-21T00:42:36.783Z,19.17
2019-03-21T00:43:36.743Z,19.15
2019-03-21T00:44:36.698Z,19.10
2019-03-21T00:45:46.654Z,19.07
2019-03-21T00:46:36.594Z,19.07
2019-03-21T00:47:36.548Z,19.10
2019-03-21T00:48:36.502Z,19.15
2019-03-21T00:49:36.647Z,19.15
2019-03-21T00:50:36.401Z,19.12
2019-03-21T00:51:36.352Z,19.13
2019-03-21T00:52:36.299Z,19.13
2019-03-21T00:53:36.249Z,19.12
2019-03-21T00:54:36.213Z,19.21
2019-03-21T00:55:36.163Z,19.06
2019-03-21T00:56:36.117Z,19.12
2019-03-21T00:57:36.074Z,19.07
2019-03-21T00:58:36.028Z,19.01
2019-03-21T00:59:35.984Z,19.13
2019-03-21T01:00:35.959Z,19.21
2019-03-21T01:01:45.915Z,19.12
2019-03-21T01:02:35.873Z,19.07
2019-03-21T01:03:35.807Z,19.07
2019-03-21T01:04:35.766Z,19.05
2019-03-21T01:05:35.723Z,19.09
2019-03-21T01:06:35.665Z,19.09
2019-03-21T01:07:35.622Z,19.01
2019-03-21T01:08:35.596Z,19.12
2019-03-21T01:09:35.526Z,19.05
2019-03-21T01:10:35.510Z,19.06
2019-03-21T01:11:35.433Z,19.01
2019-03-21T01:12:35.385Z,19.09
2019-03-21T01:13:35.356Z,19.07
2019-03-21T01:14:35.291Z,19.05
2019-03-21T01:15:35.251Z,19.09
2019-03-21T01:16:35.195Z,19.10
2019-03-21T01:17:45.175Z,19.05
2019-03-21T01:18:35.122Z,19.01
2019-03-21T01:19:35.068Z,18.99
2019-03-21T01:20:35.029Z,19.06
2019-03-21T01:21:34.970Z,19.06
2019-03-21T01:22:34.929Z,19.06
2019-03-21T01:23:34.924Z,19.09
2019-03-21T01:24:34.835Z,19.06
2019-03-21T01:25:34.810Z,19.05
2019-03-21T01:26:34.748Z,19.07
2019-03-21T01:27:34.706Z,19.02
2019-03-21T01:28:34.663Z,19.05
2019-03-21T01:29:34.615Z,19.10
2019-03-21T01:30:34.599Z,19.05
2019-03-21T01:31:34.580Z,19.01
2019-03-21T01:32:34.477Z,19.05
2019-03-21T01:33:44.451Z,19.01
2019-03-21T01:34:34.387Z,19.02
2019-03-21T01:35:34.338Z,19.05
2019-03-21T01:36:34.310Z,19.10
2019-03-21T01:37:34.255Z,19.09
2019-03-21T01:38:34.198Z,19.06
2019-03-21T01:39:34.146Z,19.02
2019-03-21T01:40:34.096Z,18.97
2019-03-21T01:41:34.059Z,19.07
2019-03-21T01:42:34.002Z,19.05
2019-03-21T01:43:33.956Z,19.02
2019-03-21T01:44:40.879Z,19.05
2019-03-21T01:45:34.861Z,18.99
2019-03-21T01:46:33.897Z,19.05
2019-03-21T01:47:33.763Z,18.99
2019-03-21T01:48:33.716Z,19.07
2019-03-21T01:49:43.682Z,19.05
2019-03-21T01:50:33.657Z,18.99
2019-03-21T01:51:33.588Z,19.02
2019-03-21T01:52:33.581Z,19.07
2019-03-21T01:53:33.483Z,18.96
2019-03-21T01:54:33.434Z,19.06
2019-03-21T01:55:33.389Z,18.97
2019-03-21T01:56:33.350Z,18.97
2019-03-21T01:57:33.300Z,18.97
2019-03-21T01:58:33.251Z,19.07
2019-03-21T01:59:33.209Z,18.96
2019-03-21T02:00:33.165Z,19.01
2019-03-21T02:01:33.142Z,18.99
2019-03-21T02:02:33.094Z,18.94
2019-03-21T02:03:33.035Z,18.99
2019-03-21T02:04:32.997Z,18.99
2019-03-21T02:05:42.979Z,18.97
2019-03-21T02:06:32.963Z,18.99
2019-03-21T02:07:32.933Z,18.97
2019-03-21T02:08:32.848Z,18.96
2019-03-21T02:09:32.802Z,18.99
2019-03-21T02:10:32.787Z,18.90
2019-03-21T02:11:32.722Z,19.01
2019-03-21T02:12:32.674Z,18.94
2019-03-21T02:13:32.619Z,18.94
2019-03-21T02:14:32.576Z,18.94
2019-03-21T02:15:32.518Z,19.01
2019-03-21T02:16:32.487Z,18.97
2019-03-21T02:17:32.430Z,18.93
2019-03-21T02:18:32.390Z,18.99
2019-03-21T02:19:32.347Z,18.91
2019-03-21T02:20:32.308Z,18.97
2019-03-21T02:21:32.285Z,18.94
2019-03-21T02:22:32.239Z,18.91
2019-03-21T02:23:42.207Z,19.02
2019-03-21T02:24:32.149Z,18.89
2019-03-21T02:25:32.107Z,18.93
2019-03-21T02:26:32.066Z,19.01
2019-03-21T02:27:32.026Z,18.91
2019-03-21T02:28:31.985Z,18.93
2019-03-21T02:29:31.943Z,18.87
2019-03-21T02:30:31.883Z,18.91
2019-03-21T02:31:31.841Z,18.89
2019-03-21T02:32:31.810Z,18.96
2019-03-21T02:33:31.752Z,18.93
2019-03-21T02:34:31.713Z,18.90
2019-03-21T02:35:31.671Z,18.96
2019-03-21T02:36:31.638Z,18.90
2019-03-21T02:37:31.605Z,18.97
2019-03-21T02:38:31.547Z,18.89
2019-03-21T02:39:41.529Z,18.93
2019-03-21T02:40:31.510Z,18.91
2019-03-21T02:41:31.464Z,18.99
2019-03-21T02:42:31.411Z,18.94
2019-03-21T02:43:31.377Z,18.90
2019-03-21T02:44:31.313Z,18.90
2019-03-21T02:45:31.272Z,18.83
2019-03-21T02:46:31.229Z,18.94
2019-03-21T02:47:31.230Z,18.89
2019-03-21T02:48:31.142Z,18.93
2019-03-21T02:49:31.098Z,18.91
2019-03-21T02:50:31.057Z,18.91
2019-03-21T02:51:31.002Z,18.89
2019-03-21T02:52:30.972Z,18.89
2019-03-21T02:53:30.915Z,18.96
2019-03-21T02:54:30.882Z,18.97
2019-03-21T02:55:30.835Z,18.91
2019-03-21T02:56:30.779Z,18.89
2019-03-21T02:57:40.773Z,18.91
2019-03-21T02:58:30.727Z,18.99
2019-03-21T02:59:30.674Z,18.84
2019-03-21T03:00:30.616Z,18.89
2019-03-21T03:01:30.570Z,18.89
2019-03-21T03:02:30.530Z,18.86
2019-03-21T03:03:30.478Z,18.89
2019-03-21T03:04:30.436Z,18.90
2019-03-21T03:05:30.385Z,18.99
2019-03-21T03:06:30.339Z,18.89
2019-03-21T03:07:30.312Z,18.83
2019-03-21T03:08:30.251Z,18.91
2019-03-21T03:09:30.214Z,18.97
2019-03-21T03:10:30.161Z,18.87
2019-03-21T03:11:30.115Z,18.83
2019-03-21T03:12:30.083Z,18.87
2019-03-21T03:13:30.029Z,18.86
2019-03-21T03:14:29.985Z,18.94
2019-03-21T03:15:39.967Z,18.90
2019-03-21T03:16:29.896Z,18.89
2019-03-21T03:17:29.858Z,18.79
2019-03-21T03:18:29.805Z,18.84
2019-03-21T03:19:29.756Z,18.84
2019-03-21T03:20:29.716Z,18.90
2019-03-21T03:21:29.675Z,18.90
2019-03-21T03:22:29.641Z,18.89
2019-03-21T03:23:29.610Z,18.93
2019-03-21T03:24:29.527Z,18.90
2019-03-21T03:25:29.482Z,18.91
2019-03-21T03:26:29.442Z,18.83
2019-03-21T03:27:29.393Z,18.89
2019-03-21T03:28:29.339Z,18.83
2019-03-21T03:29:29.296Z,18.90
2019-03-21T03:30:29.245Z,18.82
2019-03-21T03:31:39.229Z,18.87
2019-03-21T03:32:29.203Z,18.94
2019-03-21T03:33:29.247Z,18.91
2019-03-21T03:34:29.094Z,18.94
2019-03-21T03:35:29.032Z,18.87
2019-03-21T03:36:28.985Z,18.82
2019-03-21T03:37:28.942Z,18.79
2019-03-21T03:38:28.884Z,18.93
2019-03-21T03:39:28.836Z,18.89
2019-03-21T03:40:28.795Z,18.86
2019-03-21T03:41:28.744Z,18.94
2019-03-21T03:42:28.722Z,18.86
2019-03-21T03:43:28.661Z,18.89
2019-03-21T03:44:28.602Z,18.78
2019-03-21T03:45:37.617Z,18.91
2019-03-21T03:46:29.513Z,18.89
2019-03-21T03:47:38.502Z,18.84
2019-03-21T03:48:28.423Z,18.82
2019-03-21T03:49:28.376Z,18.86
2019-03-21T03:50:28.343Z,18.76
2019-03-21T03:51:28.279Z,18.84
2019-03-21T03:52:28.257Z,18.79
2019-03-21T03:53:28.188Z,18.83
2019-03-21T03:54:28.143Z,18.78
2019-03-21T03:55:28.098Z,18.83
2019-03-21T03:56:28.046Z,18.82
2019-03-21T03:57:28.019Z,18.84
2019-03-21T03:58:27.974Z,18.78
2019-03-21T03:59:27.919Z,18.78
2019-03-21T04:00:27.872Z,18.79
2019-03-21T04:01:27.832Z,18.90
2019-03-21T04:02:27.811Z,18.82
2019-03-21T04:03:37.789Z,18.75
2019-03-21T04:04:27.770Z,18.87
2019-03-21T04:05:27.653Z,18.89
2019-03-21T04:06:27.651Z,18.86
2019-03-21T04:07:27.563Z,18.83
2019-03-21T04:08:27.538Z,18.87
2019-03-21T04:09:27.454Z,18.86
2019-03-21T04:10:27.412Z,18.86
2019-03-21T04:11:27.392Z,18.89
2019-03-21T04:12:27.342Z,18.75
2019-03-21T04:13:27.316Z,18.86
2019-03-21T04:14:27.241Z,18.83
2019-03-21T04:15:27.204Z,18.84
2019-03-21T04:16:27.159Z,18.83
2019-03-21T04:17:27.123Z,18.83
2019-03-21T04:18:27.074Z,18.79
2019-03-21T04:19:37.056Z,18.82
2019-03-21T04:20:27.033Z,18.82
2019-03-21T04:21:26.973Z,18.86
2019-03-21T04:22:26.911Z,18.90
2019-03-21T04:23:26.880Z,18.79
2019-03-21T04:24:26.837Z,18.86
2019-03-21T04:25:26.782Z,18.84
2019-03-21T04:26:26.761Z,18.79
2019-03-21T04:27:26.701Z,18.78
2019-03-21T04:28:26.666Z,18.87
2019-03-21T04:29:26.701Z,18.82
2019-03-21T04:30:26.583Z,18.83
2019-03-21T04:31:26.553Z,18.86
2019-03-21T04:32:26.507Z,18.78
2019-03-21T04:33:26.456Z,18.84
2019-03-21T04:34:26.398Z,18.79
2019-03-21T04:35:26.350Z,18.79
2019-03-21T04:36:26.325Z,18.82
2019-03-21T04:37:36.315Z,18.79
2019-03-21T04:38:26.242Z,18.82
2019-03-21T04:39:26.189Z,18.79
2019-03-21T04:40:26.156Z,18.82
2019-03-21T04:41:26.102Z,18.83
2019-03-21T04:42:26.049Z,18.82
2019-03-21T04:43:26.003Z,18.83
2019-03-21T04:44:25.958Z,18.76
2019-03-21T04:45:25.912Z,18.79
2019-03-21T04:46:25.866Z,18.74
2019-03-21T04:47:25.818Z,18.75
2019-03-21T04:48:25.781Z,18.82
2019-03-21T04:49:25.720Z,18.78
2019-03-21T04:50:25.688Z,18.86
2019-03-21T04:51:25.638Z,18.79
2019-03-21T04:52:25.591Z,18.83
2019-03-21T04:53:35.578Z,18.83
2019-03-21T04:54:25.521Z,18.75
2019-03-21T04:55:25.473Z,18.79
2019-03-21T04:56:25.402Z,18.75
2019-03-21T04:57:25.350Z,18.78
2019-03-21T04:58:25.315Z,18.76
2019-03-21T04:59:25.264Z,18.78
2019-03-21T05:00:25.247Z,18.75
2019-03-21T05:01:25.176Z,18.72
2019-03-21T05:02:25.138Z,18.75
2019-03-21T05:03:25.134Z,18.78
2019-03-21T05:04:25.072Z,18.83
2019-03-21T05:05:25.007Z,18.79
2019-03-21T05:06:24.969Z,18.75
2019-03-21T05:07:24.939Z,18.82
2019-03-21T05:08:24.904Z,18.76
2019-03-21T05:09:24.847Z,18.74
2019-03-21T05:10:24.803Z,18.82
2019-03-21T05:11:34.783Z,18.76
2019-03-21T05:12:24.750Z,18.83
2019-03-21T05:13:24.721Z,18.75
2019-03-21T05:14:24.649Z,18.82
2019-03-21T05:15:24.611Z,18.82
2019-03-21T05:16:24.576Z,18.79
2019-03-21T05:17:24.541Z,18.76
2019-03-21T05:18:24.514Z,18.79
2019-03-21T05:19:24.462Z,18.78
2019-03-21T05:20:24.456Z,18.86
2019-03-21T05:21:24.378Z,18.72
2019-03-21T05:22:24.344Z,18.74
2019-03-21T05:23:24.332Z,18.71
2019-03-21T05:24:24.273Z,18.75
2019-03-21T05:25:24.243Z,18.76
2019-03-21T05:26:24.197Z,18.75
2019-03-21T05:27:24.167Z,18.76
2019-03-21T05:28:24.128Z,18.75
2019-03-21T05:29:34.109Z,18.75
2019-03-21T05:30:24.091Z,18.69
2019-03-21T05:31:24.033Z,18.78
2019-03-21T05:32:23.970Z,18.76
2019-03-21T05:33:23.934Z,18.74
2019-03-21T05:34:23.875Z,18.75
2019-03-21T05:35:23.837Z,18.79
2019-03-21T05:36:23.791Z,18.59
2019-03-21T05:37:23.754Z,18.78
2019-03-21T05:38:23.719Z,18.74
2019-03-21T05:39:23.662Z,18.72
2019-03-21T05:40:23.619Z,18.69
2019-03-21T05:41:23.577Z,18.72
2019-03-21T05:42:23.528Z,18.75
2019-03-21T05:43:23.502Z,18.74
2019-03-21T05:44:23.438Z,18.71
2019-03-21T05:45:23.402Z,18.71
2019-03-21T05:46:26.902Z,18.74
2019-03-21T05:47:33.343Z,18.79
2019-03-21T05:48:23.307Z,18.75
2019-03-21T05:49:23.277Z,18.74
2019-03-21T05:50:23.206Z,18.76
2019-03-21T05:51:23.171Z,18.74
2019-03-21T05:52:23.131Z,18.69
2019-03-21T05:53:23.097Z,18.72
2019-03-21T05:54:23.065Z,18.74
2019-03-21T05:55:23.025Z,18.74
2019-03-21T05:56:23.001Z,18.74
2019-03-21T05:57:22.943Z,18.75
2019-03-21T05:58:22.902Z,18.69
2019-03-21T05:59:22.873Z,18.72
2019-03-21T06:00:22.819Z,18.75
2019-03-21T06:01:22.777Z,18.69
2019-03-21T06:02:22.747Z,18.68
2019-03-21T06:03:22.711Z,18.74
2019-03-21T06:04:22.688Z,18.72
2019-03-21T06:05:32.664Z,18.78
2019-03-21T06:06:22.634Z,18.84
2019-03-21T06:07:22.596Z,18.75
2019-03-21T06:08:22.525Z,18.74
2019-03-21T06:09:22.504Z,18.79
2019-03-21T06:10:22.447Z,18.76
2019-03-21T06:11:22.408Z,18.75
2019-03-21T06:12:22.376Z,18.78
2019-03-21T06:13:22.334Z,18.76
2019-03-21T06:14:22.298Z,18.76
2019-03-21T06:15:22.252Z,18.76
2019-03-21T06:16:22.216Z,18.79
2019-03-21T06:17:22.173Z,18.83
2019-03-21T06:18:22.133Z,18.79
2019-03-21T06:19:22.122Z,18.82
2019-03-21T06:20:22.066Z,18.86
2019-03-21T06:21:22.033Z,18.76
2019-03-21T06:22:21.999Z,18.93
2019-03-21T06:23:31.980Z,18.93
2019-03-21T06:24:22.010Z,18.86
2019-03-21T06:25:21.911Z,18.84
2019-03-21T06:26:21.844Z,18.86
2019-03-21T06:27:21.813Z,18.93
2019-03-21T06:28:21.766Z,18.91
2019-03-21T06:29:21.777Z,18.79
2019-03-21T06:30:21.698Z,18.89
2019-03-21T06:31:21.648Z,18.82
2019-03-21T06:32:21.594Z,18.89
2019-03-21T06:33:21.561Z,18.79
2019-03-21T06:34:21.520Z,18.86
2019-03-21T06:35:21.477Z,18.75
2019-03-21T06:36:21.425Z,18.90
2019-03-21T06:37:21.376Z,18.82
2019-03-21T06:38:21.331Z,18.82
2019-03-21T06:39:21.296Z,18.84
2019-03-21T06:40:21.253Z,18.83
2019-03-21T06:41:31.226Z,18.76
2019-03-21T06:42:21.168Z,18.78
2019-03-21T06:43:21.133Z,18.84
2019-03-21T06:44:21.093Z,18.79
2019-03-21T06:45:21.063Z,18.83
2019-03-21T06:46:21.017Z,18.76
2019-03-21T06:47:20.987Z,18.79
2019-03-21T06:48:20.953Z,18.76
2019-03-21T06:49:20.923Z,18.76
2019-03-21T06:50:20.874Z,18.78
2019-03-21T06:51:20.833Z,18.76
2019-03-21T06:52:20.790Z,18.74
2019-03-21T06:53:20.764Z,18.75
2019-03-21T06:54:20.717Z,18.74
2019-03-21T06:55:20.738Z,18.78
2019-03-21T06:56:20.650Z,18.75
2019-03-21T06:57:30.643Z,18.75
2019-03-21T06:58:20.571Z,18.76
2019-03-21T06:59:20.530Z,18.74
2019-03-21T07:00:20.504Z,18.74
2019-03-21T07:01:20.456Z,18.69
2019-03-21T07:02:20.414Z,18.75
2019-03-21T07:03:20.394Z,18.74
2019-03-21T07:04:20.345Z,18.74
2019-03-21T07:05:20.314Z,18.69
2019-03-21T07:06:20.259Z,18.71
2019-03-21T07:07:20.223Z,18.79
2019-03-21T07:08:20.183Z,18.74
2019-03-21T07:09:20.141Z,18.76
2019-03-21T07:10:20.104Z,18.78
2019-03-21T07:11:20.062Z,18.79
2019-03-21T07:12:20.019Z,18.87
2019-03-21T07:13:30.017Z,18.86
2019-03-21T07:14:19.968Z,19.05
2019-03-21T07:15:19.924Z,18.99
2019-03-21T07:16:19.851Z,19.17
2019-03-21T07:17:19.811Z,19.24
2019-03-21T07:18:19.770Z,19.34
2019-03-21T07:19:19.733Z,19.46
2019-03-21T07:20:19.692Z,19.55
2019-03-21T07:21:19.648Z,19.57
2019-03-21T07:22:19.602Z,19.60
2019-03-21T07:23:19.545Z,19.76
2019-03-21T07:24:19.498Z,20.00
2019-03-21T07:25:19.449Z,20.69
2019-03-21T07:26:19.405Z,21.16
2019-03-21T07:27:19.342Z,21.56
2019-03-21T07:28:19.280Z,21.63
2019-03-21T07:29:19.237Z,21.28
2019-03-21T07:30:19.164Z,21.34
2019-03-21T07:31:29.094Z,21.89
2019-03-21T07:32:18.995Z,22.36
2019-03-21T07:33:18.902Z,22.67
2019-03-21T07:34:18.813Z,23.04
2019-03-21T07:35:18.719Z,23.19
2019-03-21T07:36:18.599Z,23.21
2019-03-21T07:37:18.532Z,23.37
2019-03-21T07:38:18.347Z,23.57
2019-03-21T07:39:18.220Z,23.39
2019-03-21T07:40:18.084Z,23.42
2019-03-21T07:41:17.946Z,23.62
2019-03-21T07:42:17.813Z,23.74
2019-03-21T07:43:17.673Z,23.79
2019-03-21T07:44:17.543Z,23.81
2019-03-21T07:45:17.578Z,23.39
2019-03-21T07:46:17.292Z,22.46
2019-03-21T07:47:27.177Z,21.82
2019-03-21T07:48:17.069Z,21.28
2019-03-21T07:49:16.965Z,20.87
2019-03-21T07:50:16.855Z,20.73
2019-03-21T07:51:16.762Z,20.61
2019-03-21T07:52:16.663Z,20.40
2019-03-21T07:53:16.572Z,20.31
2019-03-21T07:54:16.497Z,20.31
2019-03-21T07:55:16.409Z,20.30
2019-03-21T07:56:16.335Z,20.20
2019-03-21T07:57:16.242Z,20.22
2019-03-21T07:58:16.163Z,20.08
2019-03-21T07:59:16.087Z,20.05
2019-03-21T08:00:16.002Z,20.13
2019-03-21T08:01:15.962Z,20.10
2019-03-21T08:02:15.851Z,20.15
2019-03-21T08:03:25.791Z,19.98
2019-03-21T08:04:15.717Z,20.15
2019-03-21T08:05:15.640Z,20.07
2019-03-21T08:06:15.583Z,20.12
2019-03-21T08:07:15.557Z,20.08
2019-03-21T08:08:15.434Z,20.07
2019-03-21T08:09:15.366Z,20.08
2019-03-21T08:10:15.296Z,20.07
2019-03-21T08:11:15.243Z,20.08
2019-03-21T08:12:15.165Z,19.87
2019-03-21T08:13:15.099Z,19.75
2019-03-21T08:14:15.027Z,19.65
2019-03-21T08:15:14.960Z,19.70
2019-03-21T08:16:14.889Z,19.79
2019-03-21T08:17:14.823Z,19.94
2019-03-21T08:18:14.744Z,19.90
2019-03-21T08:19:24.688Z,19.97
2019-03-21T08:20:14.608Z,20.08
2019-03-21T08:21:14.563Z,20.15
2019-03-21T08:22:14.483Z,20.16
2019-03-21T08:23:14.417Z,20.23
2019-03-21T08:24:14.355Z,20.23
2019-03-21T08:25:14.291Z,20.19
2019-03-21T08:26:14.246Z,20.20
2019-03-21T08:27:14.166Z,20.27
2019-03-21T08:28:14.102Z,20.30
2019-03-21T08:29:14.043Z,20.27
2019-03-21T08:30:13.985Z,20.33
2019-03-21T08:31:13.933Z,20.30
2019-03-21T08:32:13.883Z,20.23
2019-03-21T08:33:13.809Z,20.27
2019-03-21T08:34:13.744Z,20.31
2019-03-21T08:35:23.694Z,20.35
2019-03-21T08:36:13.614Z,20.38
2019-03-21T08:37:13.556Z,20.37
2019-03-21T08:38:13.493Z,20.37
2019-03-21T08:39:13.442Z,20.41
2019-03-21T08:40:13.376Z,20.41
2019-03-21T08:41:13.323Z,20.38
2019-03-21T08:42:13.285Z,20.40
2019-03-21T08:43:13.210Z,20.41
2019-03-21T08:44:13.152Z,20.41
2019-03-21T08:45:13.093Z,20.46
2019-03-21T08:46:13.036Z,20.41
2019-03-21T08:47:12.973Z,20.53
2019-03-21T08:48:12.917Z,20.53
2019-03-21T08:49:12.868Z,20.60
2019-03-21T08:50:12.798Z,20.51
2019-03-21T08:51:22.758Z,20.56
2019-03-21T08:52:12.690Z,20.42
2019-03-21T08:53:12.633Z,20.42
2019-03-21T08:54:12.569Z,20.41
2019-03-21T08:55:12.513Z,20.38
2019-03-21T08:56:12.451Z,20.42
2019-03-21T08:57:12.416Z,20.42
2019-03-21T08:58:12.348Z,20.42
2019-03-21T08:59:12.279Z,20.42
2019-03-21T09:00:12.227Z,20.41
2019-03-21T09:01:12.172Z,20.44
2019-03-21T09:02:12.138Z,20.41
2019-03-21T09:03:12.059Z,20.38
2019-03-21T09:04:12.004Z,20.37
2019-03-21T09:05:11.948Z,20.35
2019-03-21T09:06:11.890Z,20.30
2019-03-21T09:07:21.859Z,20.30
2019-03-21T09:08:11.781Z,20.31
2019-03-21T09:09:11.725Z,20.30
2019-03-21T09:10:11.674Z,20.31
2019-03-21T09:11:11.607Z,20.34
2019-03-21T09:12:11.583Z,20.31
2019-03-21T09:13:11.492Z,20.20
2019-03-21T09:14:11.429Z,20.31
2019-03-21T09:15:11.373Z,20.31
2019-03-21T09:16:11.324Z,20.25
2019-03-21T09:17:11.265Z,20.19
2019-03-21T09:18:11.196Z,20.26
2019-03-21T09:19:11.135Z,20.26
2019-03-21T09:20:11.106Z,20.20
2019-03-21T09:21:19.148Z,20.19
2019-03-21T09:22:11.991Z,20.23
2019-03-21T09:23:20.935Z,20.19
2019-03-21T09:24:10.852Z,20.20
2019-03-21T09:25:10.799Z,20.13
2019-03-21T09:26:10.741Z,20.10
2019-03-21T09:27:10.692Z,20.17
2019-03-21T09:28:10.645Z,20.13
2019-03-21T09:29:10.579Z,20.19
2019-03-21T09:30:10.522Z,20.12
2019-03-21T09:31:10.466Z,20.10
2019-03-21T09:32:10.451Z,20.13
2019-03-21T09:33:10.361Z,20.10
2019-03-21T09:34:10.292Z,20.12
2019-03-21T09:35:12.382Z,20.10
2019-03-21T09:36:10.169Z,20.13
2019-03-21T09:37:10.119Z,20.16
2019-03-21T09:38:10.055Z,20.10
2019-03-21T09:39:20.031Z,20.15
2019-03-21T09:40:09.941Z,20.13
2019-03-21T09:41:09.879Z,20.17
2019-03-21T09:42:09.820Z,20.12
2019-03-21T09:43:09.758Z,20.12
2019-03-21T09:44:09.679Z,20.12
2019-03-21T09:45:09.621Z,20.22
2019-03-21T09:46:09.572Z,20.22
2019-03-21T09:47:09.529Z,20.20
2019-03-21T09:48:09.453Z,20.26
2019-03-21T09:49:09.384Z,20.20
2019-03-21T09:50:09.325Z,20.20
2019-03-21T09:51:09.267Z,20.19
2019-03-21T09:52:09.209Z,20.19
2019-03-21T09:53:09.162Z,20.23
2019-03-21T09:54:10.024Z,20.25
2019-03-21T09:55:19.068Z,20.27
2019-03-21T09:56:08.988Z,20.26
2019-03-21T09:57:08.940Z,20.26
2019-03-21T09:58:08.893Z,20.26
2019-03-21T09:59:08.813Z,20.27
2019-03-21T10:00:08.756Z,20.26
2019-03-21T10:01:08.686Z,20.30
2019-03-21T10:02:08.620Z,20.23
2019-03-21T10:03:08.564Z,20.19
2019-03-21T10:04:08.493Z,20.25
2019-03-21T10:05:08.432Z,20.25
2019-03-21T10:06:08.373Z,20.20
2019-03-21T10:07:08.316Z,20.22
2019-03-21T10:08:08.262Z,20.27
2019-03-21T10:09:08.174Z,20.22
2019-03-21T10:10:08.110Z,20.25
2019-03-21T10:11:18.062Z,20.13
2019-03-21T10:12:07.991Z,20.22
2019-03-21T10:13:07.950Z,20.17
2019-03-21T10:14:07.880Z,20.16
2019-03-21T10:15:07.825Z,20.13
2019-03-21T10:16:07.765Z,20.16
2019-03-21T10:17:07.704Z,20.15
2019-03-21T10:18:07.643Z,20.13
2019-03-21T10:19:07.594Z,20.17
2019-03-21T10:20:07.533Z,20.10
2019-03-21T10:21:07.495Z,20.12
2019-03-21T10:22:07.425Z,20.07
2019-03-21T10:23:07.360Z,20.00
2019-03-21T10:24:07.309Z,20.08
2019-03-21T10:25:07.246Z,20.12
2019-03-21T10:26:07.222Z,20.07
2019-03-21T10:27:17.147Z,20.12
2019-03-21T10:28:07.099Z,20.12
2019-03-21T10:29:07.026Z,20.07
2019-03-21T10:30:06.959Z,20.05
2019-03-21T10:31:06.904Z,20.00
2019-03-21T10:32:14.081Z,20.01
2019-03-21T10:33:07.799Z,20.00
2019-03-21T10:34:06.751Z,20.07
2019-03-21T10:35:06.671Z,20.01
2019-03-21T10:36:06.617Z,20.00
2019-03-21T10:37:06.568Z,20.07
2019-03-21T10:38:06.503Z,20.07
2019-03-21T10:39:06.479Z,20.12
2019-03-21T10:40:06.395Z,20.02
2019-03-21T10:41:06.357Z,19.98
2019-03-21T10:42:06.321Z,20.01
2019-03-21T10:43:16.245Z,20.01
2019-03-21T10:44:06.199Z,20.05
2019-03-21T10:45:06.118Z,20.01
2019-03-21T10:46:06.061Z,20.01
2019-03-21T10:47:06.007Z,20.01
2019-03-21T10:48:05.950Z,20.00
2019-03-21T10:49:05.918Z,19.98
2019-03-21T10:50:05.840Z,19.98
2019-03-21T10:51:05.794Z,19.90
2019-03-21T10:52:05.734Z,19.87
2019-03-21T10:53:05.676Z,19.98
2019-03-21T10:54:05.611Z,20.00
2019-03-21T10:55:05.574Z,19.90
2019-03-21T10:56:05.508Z,20.01
2019-03-21T10:57:05.443Z,19.86
2019-03-21T10:58:05.390Z,20.02
2019-03-21T10:59:15.355Z,19.90
2019-03-21T11:00:05.288Z,19.90
2019-03-21T11:01:05.218Z,20.01
2019-03-21T11:02:07.421Z,19.85
2019-03-21T11:03:05.103Z,19.92
2019-03-21T11:04:05.035Z,19.92
2019-03-21T11:05:04.983Z,19.89
2019-03-21T11:06:04.927Z,20.01
2019-03-21T11:07:04.870Z,20.00
2019-03-21T11:08:04.818Z,19.90
2019-03-21T11:09:04.755Z,19.86
2019-03-21T11:10:04.697Z,19.90
2019-03-21T11:11:04.644Z,19.90
2019-03-21T11:12:04.590Z,19.90
2019-03-21T11:13:04.548Z,19.87
2019-03-21T11:14:04.475Z,19.90
2019-03-21T11:15:14.446Z,19.87
2019-03-21T11:16:04.375Z,19.90
2019-03-21T11:17:04.321Z,19.92
2019-03-21T11:18:04.276Z,19.86
2019-03-21T11:19:04.217Z,19.83
2019-03-21T11:20:04.209Z,19.89
2019-03-21T11:21:04.104Z,19.83
2019-03-21T11:22:06.566Z,19.94
2019-03-21T11:23:04.007Z,19.92
2019-03-21T11:24:03.945Z,19.86
2019-03-21T11:25:03.891Z,19.86
2019-03-21T11:26:03.825Z,19.87
2019-03-21T11:27:03.764Z,19.89
2019-03-21T11:28:03.707Z,19.92
2019-03-21T11:29:03.656Z,19.87
2019-03-21T11:30:03.610Z,19.87
2019-03-21T11:31:13.571Z,19.82
2019-03-21T11:32:03.511Z,19.82
2019-03-21T11:33:03.448Z,19.79
2019-03-21T11:34:03.392Z,19.79
2019-03-21T11:35:03.351Z,19.78
2019-03-21T11:36:03.287Z,19.83
2019-03-21T11:37:03.238Z,19.76
2019-03-21T11:38:03.185Z,19.80
2019-03-21T11:39:03.136Z,19.80
2019-03-21T11:40:03.108Z,19.78
2019-03-21T11:41:03.028Z,19.82
2019-03-21T11:42:02.997Z,19.80
2019-03-21T11:43:02.933Z,19.79
2019-03-21T11:44:02.883Z,19.83
2019-03-21T11:45:02.833Z,19.82
2019-03-21T11:46:02.794Z,19.80
2019-03-21T11:47:12.755Z,19.72
2019-03-21T11:48:02.676Z,19.75
2019-03-21T11:49:02.634Z,19.71
2019-03-21T11:50:02.587Z,19.76
2019-03-21T11:51:02.527Z,19.78
2019-03-21T11:52:02.484Z,19.75
2019-03-21T11:53:02.415Z,19.75
2019-03-21T11:54:02.358Z,19.75
2019-03-21T11:55:02.319Z,19.76
2019-03-21T11:56:02.262Z,19.72
2019-03-21T11:57:02.201Z,19.76
2019-03-21T11:58:02.144Z,19.78
2019-03-21T11:59:02.108Z,19.80
2019-03-21T12:00:02.055Z,19.76
2019-03-21T12:01:01.989Z,19.71
2019-03-21T12:02:01.919Z,19.68
2019-03-21T12:03:11.886Z,19.70
2019-03-21T12:04:01.827Z,19.68
2019-03-21T12:05:01.773Z,19.68
2019-03-21T12:06:01.717Z,19.75
2019-03-21T12:07:01.652Z,19.70
2019-03-21T12:08:01.607Z,19.75
2019-03-21T12:09:01.553Z,19.79
2019-03-21T12:10:01.511Z,19.67
2019-03-21T12:11:01.448Z,19.68
2019-03-21T12:12:01.391Z,19.76
2019-03-21T12:13:01.337Z,19.72
2019-03-21T12:14:01.305Z,19.67
2019-03-21T12:15:01.264Z,19.70
2019-03-21T12:16:01.196Z,19.75
2019-03-21T12:17:01.144Z,19.72
2019-03-21T12:18:01.101Z,19.65
2019-03-21T12:19:11.059Z,19.68
2019-03-21T12:20:01.006Z,19.71
2019-03-21T12:21:00.944Z,19.65
2019-03-21T12:22:00.894Z,19.65
2019-03-21T12:23:00.842Z,19.71
2019-03-21T12:24:00.787Z,19.61
2019-03-21T12:25:00.754Z,19.68
2019-03-21T12:26:00.689Z,19.65
2019-03-21T12:27:00.659Z,19.67
2019-03-21T12:28:01.646Z,19.67
2019-03-21T12:29:00.556Z,19.70
2019-03-21T12:30:00.484Z,19.65
2019-03-21T12:31:00.436Z,19.70
2019-03-21T12:32:00.385Z,19.68
2019-03-21T12:33:00.344Z,19.67
2019-03-21T12:34:00.283Z,19.67
2019-03-21T12:35:10.266Z,19.68
2019-03-21T12:36:00.180Z,19.65
2019-03-21T12:37:00.147Z,19.67
2019-03-21T12:38:00.085Z,19.68
2019-03-21T12:39:00.034Z,19.62
2019-03-21T12:39:59.992Z,19.62
2019-03-21T12:40:59.948Z,19.68
2019-03-21T12:41:59.897Z,19.70
2019-03-21T12:42:59.867Z,19.62
2019-03-21T12:43:59.806Z,19.62
2019-03-21T12:44:59.760Z,19.68
2019-03-21T12:45:59.718Z,19.65
2019-03-21T12:46:59.669Z,19.67
2019-03-21T12:47:59.618Z,19.58
2019-03-21T12:48:59.577Z,19.55
2019-03-21T12:49:59.532Z,19.60
2019-03-21T12:51:09.494Z,19.61
2019-03-21T12:51:59.430Z,19.60